Centreville, Canada
Current Conditions -  °F | °C
As of 9:53 AM on Wednesday 26 Nov 2014 (Local Time) from KHUL Reporting Station
Clear Clear  
Wind Chill: 29°   Ceiling: Unl
Heat Index: 36°   Visibility: 10mi
Dew Point: 22°   Wind: 9mph
Humidity: 57%   Direction: 280°W
Pressure: 30.18"   Gusts: NA
Location:  46.43°N, 67.72°W
Report Text: KHUL 261353Z AUTO 28008KT 10SM CLR 02/M06 A3018 RMK AO2 SLP227 T00221056
Loading
Personal Weather Stations






























Interactive Weather Map New forecast layout! Learn more

10-Day Weather Forecast

Advertisements
Track Severe Weather on mobile